Time;durP1;ratioP1;P1;durP2;ratioP2;P2;SDS_P1;SDS_P2;PMS_P1;PMS_P2;Temp;Humidity;BMP_temperature;BMP_pressure;BME280_temperature;BME280_humidity;BME280_pressure;Samples;Min_cycle;Max_cycle;Signal;HPM_P1;HPM_P2
2024/01/28 00:00:18;;;;;;;60.65;26.60;;;-0.90;99.90;;;;;;5033663;28;20057;-51
2024/01/28 00:02:45;;;;;;;52.47;23.73;;;-0.90;99.90;;;;;;5036210;28;20120;-51
2024/01/28 00:05:13;;;;;;;31.40;14.07;;;-0.90;99.90;;;;;;5036315;28;20037;-45
2024/01/28 00:07:40;;;;;;;26.23;10.80;;;-0.90;99.90;;;;;;5035265;28;20044;-48
2024/01/28 00:10:08;;;;;;;22.38;10.55;;;-0.90;99.90;;;;;;5034463;28;20522;-49
2024/01/28 00:12:36;;;;;;;23.02;10.50;;;-1.00;99.90;;;;;;5038971;28;20059;-48
2024/01/28 00:15:04;;;;;;;19.23;10.05;;;-1.00;99.90;;;;;;5030884;28;20063;-48
2024/01/28 00:17:31;;;;;;;18.90;10.30;;;-1.00;99.90;;;;;;5030030;28;20071;-49
2024/01/28 00:19:58;;;;;;;19.98;10.07;;;-1.10;99.90;;;;;;5033686;28;20124;-45
2024/01/28 00:22:25;;;;;;;17.17;9.13;;;-1.10;99.90;;;;;;5033623;28;20182;-46
2024/01/28 00:24:52;;;;;;;19.48;10.48;;;-1.10;99.90;;;;;;5035262;28;20048;-45
2024/01/28 00:27:19;;;;;;;22.92;10.48;;;-1.20;99.90;;;;;;5035531;28;20067;-45
2024/01/28 00:29:46;;;;;;;20.77;10.18;;;-1.20;99.90;;;;;;5015226;28;20045;-47
2024/01/28 00:32:12;;;;;;;23.38;9.20;;;-1.10;99.90;;;;;;5035820;28;20438;-49
2024/01/28 00:34:40;;;;;;;21.70;10.25;;;-1.10;99.90;;;;;;5037976;28;20487;-43
2024/01/28 00:37:08;;;;;;;19.67;10.73;;;-1.10;99.90;;;;;;5030073;28;20041;-49
2024/01/28 00:39:35;;;;;;;24.08;10.13;;;-1.10;99.90;;;;;;5036246;28;20061;-44
2024/01/28 00:42:04;;;;;;;22.42;10.40;;;-1.00;99.90;;;;;;5030768;28;20446;-46
2024/01/28 00:44:31;;;;;;;21.58;9.63;;;-1.00;99.90;;;;;;5037144;28;20103;-49
2024/01/28 00:46:58;;;;;;;18.92;9.30;;;-1.00;99.90;;;;;;5031095;28;20096;-52
2024/01/28 00:49:32;;;;;;;23.02;10.02;;;-1.10;99.90;;;;;;5032937;28;20134;-46
2024/01/28 00:52:00;;;;;;;22.90;10.00;;;-1.10;99.90;;;;;;5038595;28;20049;-46
2024/01/28 00:54:27;;;;;;;22.65;10.13;;;-1.10;99.90;;;;;;5036253;28;20128;-46
2024/01/28 00:56:54;;;;;;;23.48;10.27;;;-1.10;99.90;;;;;;5039274;28;20088;-43
2024/01/28 00:59:21;;;;;;;17.25;9.30;;;-1.10;99.90;;;;;;5033868;28;20092;-47
2024/01/28 01:01:48;;;;;;;21.55;10.52;;;-1.20;99.90;;;;;;5033608;28;20081;-50
2024/01/28 01:04:15;;;;;;;23.00;9.90;;;-1.20;99.90;;;;;;5032643;28;20052;-48
2024/01/28 01:06:43;;;;;;;19.33;10.63;;;-1.20;99.90;;;;;;5034391;28;20048;-45
2024/01/28 01:09:11;;;;;;;16.83;8.50;;;-1.20;99.90;;;;;;5037279;28;20046;-50
2024/01/28 01:11:38;;;;;;;20.63;9.68;;;-1.30;99.90;;;;;;5035208;28;20046;-44
2024/01/28 01:14:05;;;;;;;20.52;9.48;;;-1.30;99.90;;;;;;5034840;28;20440;-50
2024/01/28 01:16:32;;;;;;;18.92;9.05;;;-1.30;99.90;;;;;;5034394;28;20061;-44
2024/01/28 01:18:59;;;;;;;24.13;9.82;;;-1.30;99.90;;;;;;5034665;28;20215;-49
2024/01/28 01:21:26;;;;;;;22.33;9.48;;;-1.30;99.90;;;;;;5041963;28;20376;-53
2024/01/28 01:23:53;;;;;;;18.42;9.20;;;-1.30;99.90;;;;;;5031444;28;20045;-52
2024/01/28 01:26:20;;;;;;;22.17;9.85;;;-1.30;99.90;;;;;;5022862;28;20053;-44
2024/01/28 01:28:47;;;;;;;20.88;10.10;;;-1.30;99.90;;;;;;5039111;28;20037;-45
2024/01/28 01:31:14;;;;;;;25.75;10.68;;;-1.30;99.90;;;;;;5043922;28;20040;-45
2024/01/28 01:33:41;;;;;;;20.52;9.40;;;-1.20;99.90;;;;;;5039100;28;20533;-41
2024/01/28 01:36:08;;;;;;;25.15;9.73;;;-1.20;99.90;;;;;;5036517;28;20517;-44
2024/01/28 01:38:35;;;;;;;20.52;9.45;;;-1.20;99.90;;;;;;5034112;28;20050;-44
2024/01/28 01:41:02;;;;;;;19.50;9.68;;;-1.20;99.90;;;;;;5037860;28;20045;-45
2024/01/28 01:43:30;;;;;;;24.17;12.35;;;-1.20;99.90;;;;;;5036050;28;20260;-43
2024/01/28 01:45:57;;;;;;;25.23;10.10;;;-1.20;99.90;;;;;;5039508;28;20533;-49
2024/01/28 01:48:26;;;;;;;24.75;9.70;;;-1.10;99.90;;;;;;5043123;28;20053;-48
2024/01/28 01:50:54;;;;;;;28.23;9.02;;;-1.10;99.90;;;;;;5039605;28;20037;-43
2024/01/28 01:53:21;;;;;;;21.90;9.20;;;-1.20;99.90;;;;;;5043268;28;20100;-48
2024/01/28 01:55:48;;;;;;;23.83;9.50;;;-1.20;99.90;;;;;;5038763;28;20069;-50
2024/01/28 01:58:16;;;;;;;16.80;8.52;;;-1.20;99.90;;;;;;5042868;28;20419;-45
2024/01/28 02:00:43;;;;;;;17.60;8.02;;;-1.20;99.90;;;;;;5025047;28;20041;-46
2024/01/28 02:03:10;;;;;;;20.63;8.88;;;-1.30;99.90;;;;;;5035945;28;20033;-51
2024/01/28 02:05:38;;;;;;;22.17;8.75;;;-1.30;99.90;;;;;;5041192;28;20041;-46
2024/01/28 02:08:06;;;;;;;22.25;9.50;;;-1.30;99.90;;;;;;5037921;28;20103;-44
2024/01/28 02:10:33;;;;;;;21.65;9.88;;;-1.30;99.90;;;;;;5043671;28;20111;-45
2024/01/28 02:13:00;;;;;;;22.02;8.20;;;-1.30;99.90;;;;;;5046114;28;20072;-47
2024/01/28 02:15:27;;;;;;;22.17;8.70;;;-1.30;99.90;;;;;;5038898;28;20129;-45
2024/01/28 02:17:55;;;;;;;21.75;8.32;;;-1.30;99.90;;;;;;5033589;28;20053;-53
2024/01/28 02:20:22;;;;;;;18.30;8.68;;;-1.30;99.90;;;;;;5038779;28;20049;-43
2024/01/28 02:22:49;;;;;;;22.50;8.95;;;-1.30;99.90;;;;;;5044121;28;20069;-49
2024/01/28 02:25:16;;;;;;;19.83;8.63;;;-1.30;99.90;;;;;;5037904;28;20037;-48
2024/01/28 02:27:46;;;;;;;17.65;8.20;;;-1.30;99.90;;;;;;5039440;28;20150;-48
2024/01/28 02:30:14;;;;;;;19.90;8.80;;;-1.30;99.90;;;;;;5034649;28;20589;-47
2024/01/28 02:32:48;;;;;;;22.13;9.07;;;-1.30;99.90;;;;;;5038556;28;20048;-52
2024/01/28 02:35:17;;;;;;;20.73;8.85;;;-1.30;99.90;;;;;;5042581;28;20047;-53
2024/01/28 02:37:44;;;;;;;20.08;9.00;;;-1.20;99.90;;;;;;5043909;28;20120;-48
2024/01/28 02:40:11;;;;;;;20.67;9.32;;;-1.30;99.90;;;;;;5042051;28;20533;-45
2024/01/28 02:42:38;;;;;;;18.95;8.63;;;-1.20;99.90;;;;;;5038345;28;20516;-45
2024/01/28 02:45:06;;;;;;;24.42;10.38;;;-1.20;99.90;;;;;;5039510;28;20741;-44
2024/01/28 02:47:33;;;;;;;23.10;9.15;;;-1.20;99.90;;;;;;5035749;28;20041;-47
2024/01/28 02:50:00;;;;;;;23.05;8.43;;;-1.30;99.90;;;;;;5038027;28;20069;-47
2024/01/28 02:52:27;;;;;;;20.88;9.07;;;-1.30;99.90;;;;;;5028872;28;20129;-49
2024/01/28 02:54:54;;;;;;;21.63;9.27;;;-1.30;99.90;;;;;;5039674;28;20042;-49
2024/01/28 02:57:21;;;;;;;28.17;8.63;;;-1.30;99.90;;;;;;5038500;28;20119;-45
2024/01/28 02:59:48;;;;;;;16.65;7.78;;;-1.30;99.90;;;;;;5035341;28;20064;-49
2024/01/28 03:02:17;;;;;;;22.73;8.07;;;-1.30;99.90;;;;;;5044345;28;20072;-48
2024/01/28 03:04:44;;;;;;;18.85;8.00;;;-1.30;99.90;;;;;;5039273;28;20040;-46
2024/01/28 03:07:11;;;;;;;18.25;8.27;;;-1.30;99.90;;;;;;5026751;28;20096;-42
2024/01/28 03:09:38;;;;;;;20.15;8.23;;;-1.30;99.90;;;;;;5040333;28;20111;-47
2024/01/28 03:12:06;;;;;;;17.38;8.25;;;-1.30;99.90;;;;;;5034656;28;20430;-46
2024/01/28 03:14:34;;;;;;;19.63;7.70;;;-1.30;99.90;;;;;;5038567;28;20528;-47
2024/01/28 03:17:01;;;;;;;18.15;7.68;;;-1.30;99.90;;;;;;5033696;28;20255;-46
2024/01/28 03:19:28;;;;;;;15.50;6.88;;;-1.30;99.90;;;;;;5037343;28;20045;-53
2024/01/28 03:21:55;;;;;;;16.35;7.47;;;-1.30;99.90;;;;;;5039205;28;20045;-49
2024/01/28 03:24:22;;;;;;;17.92;7.47;;;-1.30;99.90;;;;;;5035420;28;20041;-46
2024/01/28 03:26:49;;;;;;;22.35;8.05;;;-1.30;99.90;;;;;;5023419;28;20056;-49
2024/01/28 03:29:16;;;;;;;18.20;8.13;;;-1.40;99.90;;;;;;5037117;28;20051;-47
2024/01/28 03:31:43;;;;;;;14.85;7.13;;;-1.40;99.90;;;;;;5041036;28;20073;-48
2024/01/28 03:34:10;;;;;;;17.38;7.63;;;-1.40;99.90;;;;;;5040225;28;20052;-47
2024/01/28 03:36:37;;;;;;;18.35;7.97;;;-1.30;99.90;;;;;;5040533;28;20049;-46
2024/01/28 03:39:04;;;;;;;14.93;7.00;;;-1.40;99.90;;;;;;5046798;28;20502;-54
2024/01/28 03:41:32;;;;;;;16.30;7.50;;;-1.40;99.90;;;;;;5039828;28;20108;-47
2024/01/28 03:43:59;;;;;;;22.73;7.53;;;-1.40;99.90;;;;;;5036547;28;20052;-42
2024/01/28 03:46:26;;;;;;;19.60;7.32;;;-1.40;99.90;;;;;;5036925;28;20128;-46
2024/01/28 03:48:53;;;;;;;20.30;7.15;;;-1.40;99.90;;;;;;5045775;28;20104;-48
2024/01/28 03:51:21;;;;;;;20.73;6.97;;;-1.40;99.90;;;;;;5035920;28;20499;-46
2024/01/28 03:53:48;;;;;;;22.70;7.55;;;-1.40;99.90;;;;;;5038702;28;20053;-47
2024/01/28 03:56:15;;;;;;;24.27;7.82;;;-1.40;99.90;;;;;;5036430;28;20096;-46
2024/01/28 03:58:42;;;;;;;18.13;7.30;;;-1.40;99.90;;;;;;5031842;28;20104;-52
2024/01/28 04:01:09;;;;;;;13.40;6.78;;;-1.40;99.90;;;;;;5038829;28;20041;-49
2024/01/28 04:03:37;;;;;;;16.60;8.38;;;-1.40;99.90;;;;;;5030027;28;20046;-47
2024/01/28 04:06:04;;;;;;;16.35;6.80;;;-1.40;99.90;;;;;;5031283;28;20243;-44
2024/01/28 04:08:31;;;;;;;17.23;7.30;;;-1.40;99.90;;;;;;5024122;28;20045;-48
2024/01/28 04:10:58;;;;;;;20.63;7.97;;;-1.40;99.90;;;;;;5034358;28;20545;-45
2024/01/28 04:13:25;;;;;;;11.13;5.47;;;-1.40;99.90;;;;;;5036809;28;20076;-49
2024/01/28 04:15:52;;;;;;;14.10;6.93;;;-1.40;99.90;;;;;;5035190;28;20049;-46
2024/01/28 04:18:19;;;;;;;16.05;6.80;;;-1.40;99.90;;;;;;5036748;28;20061;-51
2024/01/28 04:20:46;;;;;;;13.27;6.13;;;-1.30;99.90;;;;;;5032795;28;20045;-44
2024/01/28 04:23:14;;;;;;;20.10;7.00;;;-1.30;99.90;;;;;;5035753;28;20041;-46
2024/01/28 04:25:41;;;;;;;20.45;7.30;;;-1.30;99.90;;;;;;5037688;28;20505;-48
2024/01/28 04:28:08;;;;;;;14.32;6.95;;;-1.30;99.90;;;;;;5031656;28;20454;-44
2024/01/28 04:30:35;;;;;;;15.23;6.72;;;-1.30;99.90;;;;;;5030653;28;20616;-45
2024/01/28 04:33:02;;;;;;;23.95;6.93;;;-1.20;99.90;;;;;;5032666;28;20045;-51
2024/01/28 04:35:29;;;;;;;18.50;7.40;;;-1.20;99.90;;;;;;5030375;28;20046;-45
2024/01/28 04:37:57;;;;;;;20.73;7.57;;;-1.20;99.90;;;;;;5036469;28;20104;-48
2024/01/28 04:40:24;;;;;;;13.82;7.05;;;-1.20;99.90;;;;;;5037519;28;20044;-48
2024/01/28 04:42:50;;;;;;;20.02;7.13;;;-1.20;99.90;;;;;;5037958;28;20045;-46
2024/01/28 04:45:19;;;;;;;15.10;6.57;;;-1.20;99.90;;;;;;5039521;28;20051;-48
2024/01/28 04:47:46;;;;;;;14.48;6.93;;;-1.20;99.90;;;;;;5026651;28;20044;-45
2024/01/28 04:50:13;;;;;;;17.40;6.78;;;-1.20;99.90;;;;;;5036134;28;20124;-48
2024/01/28 04:52:40;;;;;;;13.90;6.57;;;-1.20;99.90;;;;;;5033642;28;20434;-46
2024/01/28 04:55:07;;;;;;;19.25;6.82;;;-1.20;99.90;;;;;;5036071;28;20091;-50
2024/01/28 04:57:34;;;;;;;16.23;7.47;;;-1.30;99.90;;;;;;5038135;28;20450;-50
2024/01/28 05:00:01;;;;;;;21.40;7.75;;;-1.30;99.90;;;;;;5038425;28;20051;-50
2024/01/28 05:02:28;;;;;;;18.65;8.18;;;-1.30;99.90;;;;;;5036994;28;20581;-47
2024/01/28 05:04:55;;;;;;;18.33;7.28;;;-1.30;99.90;;;;;;5040490;28;20083;-48
2024/01/28 05:07:22;;;;;;;16.95;7.78;;;-1.30;99.90;;;;;;5033209;28;20115;-47
2024/01/28 05:09:49;;;;;;;16.85;7.03;;;-1.30;99.90;;;;;;5038244;28;20119;-49
2024/01/28 05:12:16;;;;;;;20.13;7.40;;;-1.30;99.90;;;;;;5034746;28;20073;-48
2024/01/28 05:14:43;;;;;;;15.75;6.93;;;-1.30;99.90;;;;;;5043053;28;20055;-47
2024/01/28 05:17:10;;;;;;;17.33;7.22;;;-1.40;99.90;;;;;;5027992;28;20477;-49
2024/01/28 05:19:37;;;;;;;16.27;6.78;;;-1.40;99.90;;;;;;5037126;28;20037;-47
2024/01/28 05:22:04;;;;;;;22.23;7.32;;;-1.40;99.90;;;;;;5042200;28;20045;-50
2024/01/28 05:24:31;;;;;;;17.98;7.63;;;-1.40;99.90;;;;;;5040401;28;20065;-46
2024/01/28 05:26:58;;;;;;;14.07;6.30;;;-1.40;99.90;;;;;;5046227;28;20049;-50
2024/01/28 05:29:26;;;;;;;17.17;7.03;;;-1.40;99.90;;;;;;5038537;28;20037;-50
2024/01/28 05:31:53;;;;;;;15.32;7.32;;;-1.40;99.90;;;;;;5040618;28;20609;-48
2024/01/28 05:34:20;;;;;;;14.43;7.38;;;-1.40;99.90;;;;;;5041796;28;20112;-43
2024/01/28 05:36:50;;;;;;;12.25;6.93;;;-1.40;99.90;;;;;;5037609;28;20049;-48
2024/01/28 05:39:17;;;;;;;15.95;6.97;;;-1.40;99.90;;;;;;5034622;28;20081;-49
2024/01/28 05:41:44;;;;;;;14.52;7.00;;;-1.40;99.90;;;;;;5036083;28;20048;-44
2024/01/28 05:44:15;;;;;;;16.05;6.50;;;-1.40;99.90;;;;;;5043580;28;20033;-51
2024/01/28 05:46:42;;;;;;;19.42;7.00;;;-1.40;99.90;;;;;;5038448;28;20387;-49
2024/01/28 05:49:11;;;;;;;20.23;8.32;;;-1.40;99.90;;;;;;5037728;28;20137;-52
2024/01/28 05:51:41;;;;;;;15.38;7.30;;;-1.40;99.90;;;;;;5036068;28;20061;-46
2024/01/28 05:54:09;;;;;;;15.07;7.55;;;-1.40;99.90;;;;;;5034920;28;20040;-55
2024/01/28 05:56:36;;;;;;;16.60;7.57;;;-1.40;99.90;;;;;;5036957;28;20133;-49
2024/01/28 05:59:03;;;;;;;19.13;7.68;;;-1.40;99.90;;;;;;5035468;28;20143;-50
2024/01/28 06:01:30;;;;;;;19.83;7.28;;;-1.40;99.90;;;;;;5038674;28;20053;-46
2024/01/28 06:03:57;;;;;;;21.50;8.63;;;-1.40;99.90;;;;;;5032697;28;20255;-43
2024/01/28 06:06:24;;;;;;;18.88;7.65;;;-1.40;99.90;;;;;;5037833;28;20045;-47
2024/01/28 06:08:51;;;;;;;13.18;7.47;;;-1.40;99.90;;;;;;5034774;28;20542;-48
2024/01/28 06:11:18;;;;;;;24.40;10.27;;;-1.40;99.90;;;;;;5032899;28;20076;-48
2024/01/28 06:13:45;;;;;;;17.15;8.18;;;-1.30;99.90;;;;;;5039160;28;20362;-47
2024/01/28 06:16:12;;;;;;;17.83;8.13;;;-1.30;99.90;;;;;;5044832;28;20057;-52
2024/01/28 06:18:43;;;;;;;16.73;7.68;;;-1.30;99.90;;;;;;5051849;28;20485;-47
2024/01/28 06:21:11;;;;;;;;;;;-1.30;99.90;;;;;;5043874;28;20426;-48
2024/01/28 06:23:39;;;;;;;15.70;6.88;;;-1.40;99.90;;;;;;5044409;28;19936;-47
2024/01/28 06:26:06;;;;;;;19.30;8.77;;;-1.40;99.90;;;;;;5046105;28;20051;-47
2024/01/28 06:28:33;;;;;;;20.77;9.50;;;-1.30;99.90;;;;;;5033746;28;20041;-45
2024/01/28 06:31:00;;;;;;;16.70;8.18;;;-1.30;99.90;;;;;;5037385;28;20080;-45
2024/01/28 06:33:28;;;;;;;18.00;8.48;;;-1.30;99.90;;;;;;5040701;28;20041;-45
2024/01/28 06:35:55;;;;;;;22.95;9.75;;;-1.40;99.90;;;;;;5038218;28;20073;-50
2024/01/28 06:38:23;;;;;;;16.67;8.18;;;-1.40;99.90;;;;;;5041427;28;20060;-44
2024/01/28 06:40:50;;;;;;;18.45;9.15;;;-1.40;99.90;;;;;;5035817;28;20581;-51
2024/01/28 06:43:17;;;;;;;19.75;9.20;;;-1.40;99.90;;;;;;5036273;28;20046;-46
2024/01/28 06:45:45;;;;;;;20.48;8.88;;;-1.40;99.90;;;;;;5036033;28;20299;-52
2024/01/28 06:48:12;;;;;;;19.88;9.32;;;-1.30;99.90;;;;;;5039519;28;20033;-45
2024/01/28 06:50:39;;;;;;;21.55;8.88;;;-1.30;99.90;;;;;;5034162;28;20428;-50
2024/01/28 06:53:06;;;;;;;20.20;8.77;;;-1.20;99.90;;;;;;5041104;28;20052;-48
2024/01/28 06:55:33;;;;;;;24.20;9.60;;;-1.20;99.90;;;;;;5043063;28;20044;-53
2024/01/28 06:58:00;;;;;;;15.73;8.23;;;-1.10;99.90;;;;;;5034756;28;20046;-45
2024/01/28 07:00:27;;;;;;;20.33;9.02;;;-1.10;99.90;;;;;;5041106;28;20127;-52
2024/01/28 07:02:54;;;;;;;17.17;7.95;;;-1.10;99.90;;;;;;5033374;28;20049;-49
2024/01/28 07:05:22;;;;;;;19.95;8.93;;;-1.10;99.90;;;;;;5040098;28;20053;-48
2024/01/28 07:07:49;;;;;;;17.58;8.43;;;-1.10;99.90;;;;;;5034400;28;20069;-51
2024/01/28 07:10:16;;;;;;;22.92;8.57;;;-1.10;99.90;;;;;;5038281;28;20053;-45
2024/01/28 07:12:43;;;;;;;16.67;8.63;;;-1.10;99.90;;;;;;5034727;28;20518;-44
2024/01/28 07:15:10;;;;;;;16.75;8.38;;;-1.10;99.90;;;;;;5033223;28;20513;-41
2024/01/28 07:17:37;;;;;;;16.40;7.88;;;-1.10;99.90;;;;;;5042296;28;20041;-51
2024/01/28 07:20:05;;;;;;;19.55;9.57;;;-1.10;99.90;;;;;;5034964;28;20147;-46
2024/01/28 07:22:32;;;;;;;18.70;8.80;;;-1.00;99.90;;;;;;5036822;28;20096;-47
2024/01/28 07:24:59;;;;;;;18.95;9.25;;;-1.00;99.90;;;;;;5034843;28;20065;-48
2024/01/28 07:27:26;;;;;;;17.35;8.95;;;-1.00;99.90;;;;;;5042450;28;20063;-47
2024/01/28 07:30:05;;;;;;;17.25;8.98;;;-0.90;99.90;;;;;;5037318;28;20046;-51
2024/01/28 07:32:32;;;;;;;18.73;9.45;;;-0.90;99.90;;;;;;5008460;28;20112;-49
2024/01/28 07:34:59;;;;;;;22.10;9.07;;;-0.80;99.90;;;;;;5016863;28;20140;-51
2024/01/28 07:37:26;;;;;;;24.83;9.00;;;-0.80;99.90;;;;;;5007977;28;20129;-50
2024/01/28 07:39:53;;;;;;;19.23;8.60;;;-0.70;99.90;;;;;;5015832;28;20074;-49
2024/01/28 07:42:20;;;;;;;21.70;8.75;;;-0.70;99.90;;;;;;5011567;28;20502;-50
2024/01/28 07:44:48;;;;;;;21.65;9.70;;;-0.60;99.90;;;;;;5011036;28;20092;-49
2024/01/28 07:47:15;;;;;;;23.50;9.93;;;-0.50;99.90;;;;;;4993314;28;20068;-50
2024/01/28 07:49:42;;;;;;;21.73;10.10;;;-0.50;99.90;;;;;;5012265;28;20366;-46
2024/01/28 07:52:09;;;;;;;25.02;10.27;;;-0.40;99.90;;;;;;5007556;28;20553;-47
2024/01/28 07:54:36;;;;;;;15.80;8.95;;;-0.40;99.90;;;;;;5009766;28;20050;-49
2024/01/28 07:57:03;;;;;;;19.35;9.23;;;-0.30;99.90;;;;;;5010175;28;20120;-50
2024/01/28 07:59:30;;;;;;;17.08;8.75;;;-0.30;99.90;;;;;;5007296;28;20129;-50
2024/01/28 08:01:57;;;;;;;17.17;9.02;;;-0.20;99.90;;;;;;5010289;28;20129;-54
2024/01/28 08:04:24;;;;;;;20.40;8.95;;;-0.20;99.90;;;;;;5006710;28;20045;-48
2024/01/28 08:06:51;;;;;;;15.98;8.68;;;-0.10;99.90;;;;;;5005725;28;20041;-49
2024/01/28 08:09:18;;;;;;;18.70;10.10;;;0.00;99.90;;;;;;5004810;28;20037;-51
2024/01/28 08:11:45;;;;;;;22.10;10.10;;;0.00;99.90;;;;;;5003150;28;20041;-47
2024/01/28 08:14:13;;;;;;;19.02;8.65;;;0.10;99.90;;;;;;5007746;28;20515;-49
2024/01/28 08:16:40;;;;;;;19.02;8.95;;;0.10;99.90;;;;;;5007000;28;20058;-48
2024/01/28 08:19:08;;;;;;;17.90;9.95;;;0.20;99.90;;;;;;5011671;28;20451;-54
2024/01/28 08:21:35;;;;;;;21.40;9.20;;;0.30;99.90;;;;;;5005214;28;20123;-47
2024/01/28 08:24:02;;;;;;;19.85;9.43;;;0.30;99.90;;;;;;5008177;28;20057;-51
2024/01/28 08:26:29;;;;;;;18.85;9.40;;;0.40;99.90;;;;;;5004521;28;20495;-54
2024/01/28 08:28:57;;;;;;;18.77;9.25;;;0.50;99.90;;;;;;5006337;28;20045;-45
2024/01/28 08:31:24;;;;;;;22.50;9.65;;;0.50;99.90;;;;;;5008709;28;20566;-49
2024/01/28 08:33:51;;;;;;;19.00;9.32;;;0.60;99.90;;;;;;5007345;28;20095;-49
2024/01/28 08:36:18;;;;;;;15.07;9.05;;;0.70;99.90;;;;;;5007033;28;20411;-50
2024/01/28 08:38:45;;;;;;;18.10;9.18;;;0.70;99.90;;;;;;5007412;28;20105;-52
2024/01/28 08:41:12;;;;;;;22.13;10.00;;;0.80;99.90;;;;;;5006666;28;20077;-54
2024/01/28 08:43:39;;;;;;;18.20;9.23;;;0.90;99.90;;;;;;5010732;28;20101;-48
2024/01/28 08:46:06;;;;;;;21.48;10.10;;;1.00;99.90;;;;;;5013831;28;20053;-48
2024/01/28 08:48:33;;;;;;;20.15;9.63;;;1.10;99.90;;;;;;5013777;28;20510;-50
2024/01/28 08:51:00;;;;;;;23.52;10.70;;;1.20;99.90;;;;;;4989610;28;20058;-51
2024/01/28 08:53:27;;;;;;;20.15;11.05;;;1.30;99.90;;;;;;5011971;28;20097;-50
2024/01/28 08:55:54;;;;;;;21.50;11.70;;;1.40;99.90;;;;;;5008248;28;20093;-50
2024/01/28 08:58:21;;;;;;;15.80;9.68;;;1.50;99.90;;;;;;5011433;28;20124;-50
2024/01/28 09:00:48;;;;;;;17.15;9.70;;;1.60;99.90;;;;;;5009600;28;20535;-51
2024/01/28 09:03:15;;;;;;;22.30;9.85;;;1.70;99.90;;;;;;5005957;28;20144;-50
2024/01/28 09:05:42;;;;;;;16.75;9.35;;;1.80;99.90;;;;;;5004714;28;20042;-52
2024/01/28 09:08:09;;;;;;;22.42;10.43;;;1.90;99.90;;;;;;5006232;28;20042;-45
2024/01/28 09:10:36;;;;;;;15.77;9.82;;;2.00;99.90;;;;;;5006166;28;20042;-49
2024/01/28 09:13:04;;;;;;;18.65;10.23;;;2.10;99.90;;;;;;5008047;28;20053;-54
2024/01/28 09:15:30;;;;;;;15.30;9.27;;;2.20;99.90;;;;;;5007540;28;20046;-47
2024/01/28 09:17:58;;;;;;;20.77;10.40;;;2.40;99.90;;;;;;5010066;28;20450;-50
2024/01/28 09:20:25;;;;;;;16.60;8.65;;;2.50;99.90;;;;;;5004181;28;20066;-52
2024/01/28 09:22:52;;;;;;;18.90;9.35;;;2.60;99.90;;;;;;5009641;28;20545;-49
2024/01/28 09:25:19;;;;;;;28.65;15.98;;;2.70;99.90;;;;;;5010496;28;20439;-50
2024/01/28 09:27:48;;;;;;;30.08;13.35;;;2.90;99.90;;;;;;5008195;28;20131;-49
2024/01/28 09:30:16;;;;;;;17.08;10.57;;;3.00;99.90;;;;;;5007321;28;20128;-50
2024/01/28 09:32:43;;;;;;;18.83;10.23;;;3.20;99.90;;;;;;5007131;28;20078;-50
2024/01/28 09:35:10;;;;;;;18.50;9.02;;;3.30;99.90;;;;;;5013783;28;20491;-51
2024/01/28 09:37:37;;;;;;;15.63;8.80;;;3.50;99.90;;;;;;5008889;28;20125;-49
2024/01/28 09:40:04;;;;;;;19.83;8.80;;;3.60;99.90;;;;;;5009173;28;20533;-52
2024/01/28 09:43:19;;;;;;;15.70;9.10;;;3.70;99.90;;;;;;5009453;28;20041;-44
2024/01/28 09:45:46;;;;;;;14.82;8.32;;;3.90;99.90;;;;;;5001152;28;20074;-55
2024/01/28 09:48:14;;;;;;;20.20;8.63;;;4.10;99.90;;;;;;5017200;28;20055;-49
2024/01/28 09:50:41;;;;;;;12.77;7.45;;;4.30;99.90;;;;;;5009577;28;20041;-51
2024/01/28 09:53:10;;;;;;;13.25;7.03;;;4.40;99.90;;;;;;5012357;28;20529;-51
2024/01/28 09:55:37;;;;;;;16.38;7.45;;;4.50;99.90;;;;;;5010392;28;20046;-52
2024/01/28 09:58:04;;;;;;;15.77;7.72;;;4.60;99.90;;;;;;5015454;28;20132;-47
2024/01/28 10:00:31;;;;;;;16.58;8.15;;;4.70;99.90;;;;;;5011539;28;20037;-50
2024/01/28 10:02:58;;;;;;;18.77;8.18;;;4.80;99.90;;;;;;5013980;28;20153;-48
2024/01/28 10:05:25;;;;;;;20.50;8.95;;;5.00;99.90;;;;;;5008925;28;20057;-50
2024/01/28 10:08:01;;;;;;;17.67;8.43;;;5.20;99.90;;;;;;5010345;28;20053;-47
2024/01/28 10:10:29;;;;;;;15.35;8.25;;;5.30;99.90;;;;;;5014847;28;20050;-47
2024/01/28 10:12:59;;;;;;;11.88;7.68;;;5.50;99.90;;;;;;5010583;28;20049;-49
2024/01/28 10:15:27;;;;;;;10.05;6.25;;;5.60;99.90;;;;;;5013063;28;20046;-48
2024/01/28 10:17:54;;;;;;;16.33;7.10;;;5.70;99.90;;;;;;5009960;28;20050;-49
2024/01/28 10:20:23;;;;;;;12.93;7.45;;;5.90;99.90;;;;;;5011962;28;20406;-47
2024/01/28 10:22:52;;;;;;;14.38;7.22;;;6.00;99.90;;;;;;5011620;28;20531;-53
2024/01/28 10:25:22;;;;;;;12.35;5.78;;;6.20;99.90;;;;;;5012468;28;20045;-48
2024/01/28 10:27:49;;;;;;;9.20;6.20;;;6.40;99.90;;;;;;5009548;28;20042;-48
2024/01/28 10:30:18;;;;;;;11.35;6.47;;;6.50;99.90;;;;;;5009475;28;20077;-50
2024/01/28 10:32:46;;;;;;;12.23;6.40;;;6.60;99.90;;;;;;5011908;28;20082;-49
2024/01/28 10:35:16;;;;;;;11.32;6.28;;;6.80;99.90;;;;;;5018384;28;20060;-52
2024/01/28 10:37:49;;;;;;;8.18;4.90;;;7.00;99.90;;;;;;5010490;28;20641;-47
2024/01/28 10:40:18;;;;;;;8.88;4.82;;;7.20;99.90;;;;;;5011584;28;20061;-48
2024/01/28 10:42:48;;;;;;;9.38;4.45;;;7.40;99.90;;;;;;5011899;28;20037;-47
2024/01/28 10:45:19;;;;;;;9.07;4.90;;;7.60;99.90;;;;;;5009737;28;20057;-46
2024/01/28 10:47:53;;;;;;;8.75;4.43;;;7.80;99.90;;;;;;5017247;28;20400;-51
2024/01/28 10:50:22;;;;;;;9.32;4.47;;;8.00;99.90;;;;;;5017012;28;20350;-48
2024/01/28 10:52:48;;;;;;;7.50;3.95;;;8.20;99.90;;;;;;5014459;28;20049;-51
2024/01/28 10:55:16;;;;;;;7.70;4.32;;;8.40;99.90;;;;;;5010143;28;20481;-46
2024/01/28 10:57:45;;;;;;;7.82;4.60;;;8.60;99.90;;;;;;5008719;28;20076;-46
2024/01/28 11:00:13;;;;;;;7.40;4.57;;;8.90;99.90;;;;;;5004573;28;20312;-46
2024/01/28 11:02:42;;;;;;;11.02;4.85;;;9.20;99.90;;;;;;5009976;28;20411;-47
2024/01/28 11:05:10;;;;;;;9.20;5.63;;;9.50;99.90;;;;;;5007644;28;20470;-51
2024/01/28 11:07:38;;;;;;;9.00;5.00;;;9.70;99.90;;;;;;5008040;28;20038;-49
2024/01/28 11:10:10;;;;;;;8.38;4.47;;;10.00;99.90;;;;;;5013804;28;20052;-51
2024/01/28 11:12:39;;;;;;;8.80;5.00;;;10.30;99.90;;;;;;5011435;28;20038;-47
2024/01/28 11:15:12;;;;;;;7.78;4.72;;;10.50;99.90;;;;;;5003892;28;20102;-46
2024/01/28 11:17:39;;;;;;;6.20;4.88;;;10.90;99.90;;;;;;5006433;28;20491;-49
2024/01/28 11:20:17;;;;;;;8.82;4.75;;;11.20;99.90;;;;;;5001883;28;20522;-50
2024/01/28 11:22:52;;;;;;;5.35;4.30;;;11.60;99.90;;;;;;5009065;28;20049;-48
2024/01/28 11:25:24;;;;;;;7.53;4.38;;;12.00;99.90;;;;;;5006795;28;20072;-49
2024/01/28 11:27:57;;;;;;;6.60;5.03;;;12.10;99.90;;;;;;5010997;28;20133;-52
2024/01/28 11:30:24;;;;;;;7.30;4.95;;;12.40;99.90;;;;;;5009360;28;20045;-48
2024/01/28 11:32:55;;;;;;;7.65;4.53;;;12.50;99.90;;;;;;5008925;28;20128;-46
2024/01/28 11:35:23;;;;;;;7.40;4.80;;;12.90;99.90;;;;;;5007532;28;20063;-47
2024/01/28 11:37:58;;;;;;;9.57;4.95;;;13.20;99.90;;;;;;5007364;28;20510;-51
2024/01/28 11:40:32;;;;;;;6.60;5.10;;;13.80;99.30;;;;;;5004925;28;20472;-46
2024/01/28 11:42:59;;;;;;;8.38;5.88;;;14.00;98.50;;;;;;5006758;28;20434;-46
2024/01/28 11:45:27;;;;;;;7.40;5.03;;;14.40;97.40;;;;;;5006424;28;20057;-45
2024/01/28 11:47:54;;;;;;;6.47;5.50;;;14.80;94.90;;;;;;5006253;28;20502;-46
2024/01/28 11:50:21;;;;;;;10.88;5.18;;;15.00;94.30;;;;;;5005443;28;20274;-45
2024/01/28 11:52:48;;;;;;;8.70;5.53;;;15.10;93.10;;;;;;5004642;28;20506;-47
2024/01/28 11:55:17;;;;;;;6.65;5.82;;;15.30;92.20;;;;;;5005366;28;20046;-49
2024/01/28 11:57:47;;;;;;;6.25;5.47;;;15.70;90.70;;;;;;5005577;28;20054;-48
2024/01/28 12:00:15;;;;;;;7.00;5.82;;;16.10;88.20;;;;;;4988536;28;20459;-46
2024/01/28 12:02:43;;;;;;;6.32;5.30;;;16.30;87.10;;;;;;5006091;28;20098;-45
2024/01/28 12:05:10;;;;;;;7.25;5.57;;;16.40;85.50;;;;;;5004682;28;20121;-56
2024/01/28 12:07:38;;;;;;;6.88;5.75;;;16.70;84.10;;;;;;5008249;28;20065;-42
2024/01/28 12:10:12;;;;;;;5.47;4.93;;;16.80;82.50;;;;;;5006471;28;20042;-47
2024/01/28 12:12:40;;;;;;;7.90;4.90;;;16.80;80.10;;;;;;5008919;28;20077;-46
2024/01/28 12:15:09;;;;;;;5.93;5.25;;;17.00;80.10;;;;;;5008737;28;20119;-47
2024/01/28 12:17:40;;;;;;;5.75;5.05;;;17.00;78.00;;;;;;5009326;28;20087;-46
2024/01/28 12:20:19;;;;;;;7.65;5.30;;;17.10;77.60;;;;;;5007515;28;20084;-45
2024/01/28 12:22:46;;;;;;;6.47;4.93;;;17.50;75.80;;;;;;5011731;28;20045;-51
2024/01/28 12:25:20;;;;;;;6.07;4.85;;;17.70;76.20;;;;;;5006604;28;20387;-46
2024/01/28 12:27:50;;;;;;;7.63;5.22;;;18.10;73.20;;;;;;5007180;28;20463;-46
2024/01/28 12:30:18;;;;;;;5.65;4.90;;;18.00;74.50;;;;;;5005452;28;20121;-50
2024/01/28 12:32:45;;;;;;;7.88;5.00;;;17.90;72.00;;;;;;5004351;28;20494;-46
2024/01/28 12:35:13;;;;;;;5.30;4.80;;;18.40;69.00;;;;;;5008076;28;20033;-46
2024/01/28 12:37:41;;;;;;;6.97;5.10;;;18.80;68.10;;;;;;5008497;28;20038;-51
2024/01/28 12:40:09;;;;;;;6.05;4.65;;;18.80;67.70;;;;;;5007100;28;20042;-51
2024/01/28 12:42:39;;;;;;;6.75;4.93;;;18.90;66.00;;;;;;5007591;28;20042;-46